createdAt,value
2023-08-15T00:00:51.461Z,4.15
2023-08-15T00:03:34.245Z,3.53
2023-08-15T00:06:02.841Z,3.60
2023-08-15T00:08:31.068Z,4.25
2023-08-15T00:10:59.868Z,4.35
2023-08-15T00:13:28.519Z,3.47
2023-08-15T00:15:58.517Z,3.83
2023-08-15T00:18:26.992Z,4.00
2023-08-15T00:20:55.513Z,3.75
2023-08-15T00:23:23.786Z,4.18
2023-08-15T00:25:52.624Z,4.55
2023-08-15T00:28:21.179Z,4.32
2023-08-15T00:30:49.727Z,3.70
2023-08-15T00:33:19.462Z,3.92
2023-08-15T00:35:48.048Z,4.20
2023-08-15T00:38:16.671Z,4.43
2023-08-15T00:40:45.251Z,4.80
2023-08-15T00:43:13.588Z,4.30
2023-08-15T00:45:44.131Z,3.88
2023-08-15T00:48:15.207Z,4.80
2023-08-15T00:50:46.615Z,4.35
2023-08-15T00:53:15.063Z,4.50
2023-08-15T00:55:44.321Z,4.15
2023-08-15T00:58:12.751Z,4.45
2023-08-15T01:00:41.466Z,3.97
2023-08-15T01:03:09.867Z,3.92
2023-08-15T01:05:40.731Z,3.85
2023-08-15T01:08:10.441Z,3.97
2023-08-15T01:10:41.320Z,3.65
2023-08-15T01:13:16.267Z,4.65
2023-08-15T01:15:51.215Z,4.85
2023-08-15T01:18:26.090Z,4.28
2023-08-15T01:20:56.918Z,3.30
2023-08-15T01:23:37.669Z,4.03
2023-08-15T01:26:06.197Z,4.00
2023-08-15T01:28:34.435Z,4.45
2023-08-15T01:31:11.226Z,4.47
2023-08-15T01:33:45.168Z,3.75
2023-08-15T01:36:18.507Z,3.95
2023-08-15T01:38:53.429Z,3.67
2023-08-15T01:41:23.455Z,4.28
2023-08-15T01:43:54.081Z,4.10
2023-08-15T01:46:23.000Z,4.13
2023-08-15T01:48:51.327Z,3.42
2023-08-15T01:51:19.839Z,3.30
2023-08-15T01:53:49.537Z,3.60
2023-08-15T01:56:18.047Z,4.13
2023-08-15T01:58:46.337Z,3.45
2023-08-15T02:01:15.462Z,3.53
2023-08-15T02:03:43.879Z,3.50
2023-08-15T02:06:12.430Z,3.95
2023-08-15T02:08:40.666Z,3.67
2023-08-15T02:11:10.695Z,3.80
2023-08-15T02:13:38.928Z,3.67
2023-08-15T02:16:07.705Z,3.35
2023-08-15T02:18:35.978Z,3.35
2023-08-15T02:21:04.598Z,3.90
2023-08-15T02:23:33.048Z,3.67
2023-08-15T02:26:01.524Z,3.42
2023-08-15T02:28:32.306Z,4.03
2023-08-15T02:31:01.086Z,3.55
2023-08-15T02:33:29.425Z,3.85
2023-08-15T02:35:57.999Z,3.78
2023-08-15T02:38:26.278Z,3.20
2023-08-15T02:40:54.786Z,3.85
2023-08-15T02:43:23.149Z,3.92
2023-08-15T02:45:53.096Z,3.65
2023-08-15T02:48:21.777Z,3.85
2023-08-15T02:50:50.348Z,3.47
2023-08-15T02:53:18.689Z,3.33
2023-08-15T02:55:51.744Z,3.90
2023-08-15T02:58:20.345Z,4.50
2023-08-15T03:00:48.997Z,3.90
2023-08-15T03:03:18.680Z,3.58
2023-08-15T03:05:47.387Z,4.13
2023-08-15T03:08:15.689Z,3.63
2023-08-15T03:10:44.252Z,4.00
2023-08-15T03:13:13.474Z,4.10
2023-08-15T03:15:42.225Z,3.90
2023-08-15T03:18:10.680Z,3.90
2023-08-15T03:20:40.739Z,4.45
2023-08-15T03:23:09.124Z,3.80
2023-08-15T03:25:37.738Z,3.58
2023-08-15T03:28:06.322Z,4.50
2023-08-15T03:30:36.212Z,3.65
2023-08-15T03:33:04.632Z,4.20
2023-08-15T03:35:33.276Z,3.75
2023-08-15T03:38:02.897Z,4.00
2023-08-15T03:40:31.437Z,3.95
2023-08-15T03:43:00.054Z,4.30
2023-08-15T03:45:30.888Z,4.20
2023-08-15T03:47:59.599Z,3.50
2023-08-15T03:50:28.366Z,4.22
2023-08-15T03:52:56.741Z,3.55
2023-08-15T03:55:26.797Z,4.05
2023-08-15T03:57:55.506Z,4.57
2023-08-15T04:00:25.117Z,3.85
2023-08-15T04:02:54.046Z,5.15
2023-08-15T04:05:25.218Z,4.13
2023-08-15T04:07:53.868Z,4.40
2023-08-15T04:10:22.922Z,3.95
2023-08-15T04:12:52.758Z,4.32
2023-08-15T04:15:21.376Z,4.55
2023-08-15T04:17:49.678Z,4.40
2023-08-15T04:20:18.645Z,3.75
2023-08-15T04:22:46.899Z,3.78
2023-08-15T04:25:17.006Z,4.05
2023-08-15T04:27:45.320Z,4.70
2023-08-15T04:30:15.407Z,3.92
2023-08-15T04:32:43.691Z,4.80
2023-08-15T04:35:12.253Z,4.72
2023-08-15T04:37:40.677Z,5.43
2023-08-15T04:40:14.028Z,5.15
2023-08-15T04:42:42.565Z,4.82
2023-08-15T04:45:11.802Z,4.68
2023-08-15T04:47:41.593Z,5.65
2023-08-15T04:50:11.316Z,6.05
2023-08-15T04:52:39.561Z,4.65
2023-08-15T04:55:11.555Z,5.25
2023-08-15T04:57:40.034Z,5.25
2023-08-15T05:00:10.157Z,5.13
2023-08-15T05:02:38.609Z,5.47
2023-08-15T05:05:11.765Z,5.25
2023-08-15T05:07:40.737Z,5.60
2023-08-15T05:10:10.247Z,5.03
2023-08-15T05:12:38.608Z,6.00
2023-08-15T05:15:09.248Z,4.90
2023-08-15T05:17:38.225Z,4.45
2023-08-15T05:20:10.001Z,4.90
2023-08-15T05:22:38.394Z,4.60
2023-08-15T05:25:07.682Z,4.03
2023-08-15T05:27:36.099Z,4.80
2023-08-15T05:30:05.146Z,3.83
2023-08-15T05:32:33.588Z,5.55
2023-08-15T05:35:02.128Z,5.50
2023-08-15T05:37:32.474Z,5.75
2023-08-15T05:40:05.388Z,5.03
2023-08-15T05:42:33.743Z,4.57
2023-08-15T05:45:02.392Z,5.00
2023-08-15T05:47:30.874Z,5.10
2023-08-15T05:49:59.536Z,4.40
2023-08-15T05:52:28.293Z,4.57
2023-08-15T05:54:58.478Z,4.45
2023-08-15T05:57:26.781Z,4.47
2023-08-15T05:59:55.534Z,4.25
2023-08-15T06:02:23.737Z,4.47
2023-08-15T06:04:52.425Z,4.53
2023-08-15T06:07:21.065Z,4.03
2023-08-15T06:09:49.785Z,3.80
2023-08-15T06:12:19.399Z,3.83
2023-08-15T06:14:47.974Z,4.00
2023-08-15T06:17:18.308Z,4.00
2023-08-15T06:19:47.099Z,3.65
2023-08-15T06:22:16.377Z,3.85
2023-08-15T06:24:45.088Z,3.35
2023-08-15T06:27:13.744Z,4.15
2023-08-15T06:29:43.661Z,3.95
2023-08-15T06:32:26.819Z,3.70
2023-08-15T06:34:55.503Z,3.15
2023-08-15T06:37:24.345Z,3.53
2023-08-15T06:39:53.039Z,2.92
2023-08-15T06:42:21.329Z,3.15
2023-08-15T06:44:52.145Z,3.70
2023-08-15T06:47:20.646Z,3.25
2023-08-15T06:49:49.324Z,3.05
2023-08-15T06:52:17.720Z,3.08
2023-08-15T06:54:47.349Z,3.55
2023-08-15T06:57:15.687Z,3.50
2023-08-15T06:59:44.750Z,3.20
2023-08-15T07:02:14.618Z,3.53
2023-08-15T07:04:45.124Z,3.15
2023-08-15T07:07:13.738Z,3.28
2023-08-15T07:09:42.531Z,2.72
2023-08-15T07:12:11.280Z,3.40
2023-08-15T07:14:40.184Z,2.97
2023-08-15T07:17:08.576Z,3.95
2023-08-15T07:19:38.914Z,2.88
2023-08-15T07:22:07.479Z,3.50
2023-08-15T07:24:36.195Z,3.05
2023-08-15T07:27:04.593Z,2.72
2023-08-15T07:29:33.187Z,3.63
2023-08-15T07:32:01.467Z,3.30
2023-08-15T07:34:30.092Z,2.35
2023-08-15T07:36:59.791Z,3.28
2023-08-15T07:39:29.019Z,3.30
2023-08-15T07:41:57.347Z,2.30
2023-08-15T07:44:26.797Z,2.63
2023-08-15T07:46:55.252Z,2.72
2023-08-15T07:49:23.999Z,3.15
2023-08-15T07:51:54.134Z,3.00
2023-08-15T07:54:24.271Z,2.75
2023-08-15T07:56:52.650Z,2.60
2023-08-15T07:59:21.428Z,2.50
2023-08-15T08:01:49.757Z,3.15
2023-08-15T08:04:20.247Z,2.50
2023-08-15T08:06:49.837Z,2.42
2023-08-15T08:09:19.458Z,2.35
2023-08-15T08:11:50.029Z,2.75
2023-08-15T08:14:20.864Z,2.90
2023-08-15T08:16:49.339Z,2.50
2023-08-15T08:19:19.177Z,2.50
2023-08-15T08:21:48.028Z,2.92
2023-08-15T08:24:17.253Z,2.83
2023-08-15T08:26:45.667Z,2.47
2023-08-15T08:29:16.406Z,2.20
2023-08-15T08:31:44.798Z,2.33
2023-08-15T08:34:15.789Z,2.97
2023-08-15T08:36:44.659Z,2.22
2023-08-15T08:39:21.806Z,2.25
2023-08-15T08:41:54.627Z,2.60
2023-08-15T08:44:26.090Z,2.28
2023-08-15T08:46:54.837Z,2.20
2023-08-15T08:49:28.975Z,2.55
2023-08-15T08:51:58.686Z,1.90
2023-08-15T08:54:46.982Z,2.85
2023-08-15T08:57:16.682Z,2.38
2023-08-15T08:59:48.347Z,2.22
2023-08-15T09:02:23.718Z,2.20
2023-08-15T09:04:56.071Z,2.20
2023-08-15T09:07:24.984Z,2.70
2023-08-15T09:09:53.731Z,2.35
2023-08-15T09:12:36.545Z,2.67
2023-08-15T09:15:09.884Z,2.17
2023-08-15T09:17:39.468Z,1.73
2023-08-15T09:20:14.781Z,2.00
2023-08-15T09:22:46.173Z,2.58
2023-08-15T09:25:16.251Z,2.45
2023-08-15T09:27:45.936Z,1.85
2023-08-15T09:30:18.678Z,2.53
2023-08-15T09:32:48.148Z,1.88
2023-08-15T09:35:18.478Z,2.03
2023-08-15T09:37:48.297Z,2.22
2023-08-15T09:40:18.595Z,2.10
2023-08-15T09:42:47.769Z,2.20
2023-08-15T09:45:18.457Z,2.03
2023-08-15T09:47:49.713Z,2.50
2023-08-15T09:50:18.872Z,2.38
2023-08-15T09:52:52.578Z,2.13
2023-08-15T09:55:22.175Z,2.20
2023-08-15T09:57:52.216Z,2.50
2023-08-15T10:00:22.466Z,2.30
2023-08-15T10:02:56.358Z,2.38
2023-08-15T10:05:31.741Z,2.55
2023-08-15T10:08:00.583Z,2.50
2023-08-15T10:10:35.178Z,1.98
2023-08-15T10:13:05.148Z,2.15
2023-08-15T10:15:36.660Z,1.88
2023-08-15T10:18:06.325Z,2.10
2023-08-15T10:20:38.901Z,2.15
2023-08-15T10:23:10.765Z,1.95
2023-08-15T10:25:42.756Z,2.20
2023-08-15T10:28:12.659Z,2.25
2023-08-15T10:30:52.381Z,2.22
2023-08-15T10:33:25.354Z,2.33
2023-08-15T10:36:08.092Z,2.17
2023-08-15T10:38:45.157Z,2.15
2023-08-15T10:41:17.122Z,2.10
2023-08-15T10:43:51.470Z,2.40
2023-08-15T10:46:31.654Z,1.77
2023-08-15T10:49:04.705Z,2.58
2023-08-15T10:51:36.057Z,2.20
2023-08-15T10:54:07.495Z,1.88
2023-08-15T10:56:38.542Z,1.88
2023-08-15T10:59:09.100Z,2.08
2023-08-15T11:01:43.433Z,2.30
2023-08-15T11:04:16.081Z,2.58
2023-08-15T11:06:53.985Z,1.90
2023-08-15T11:09:29.590Z,2.13
2023-08-15T11:12:07.160Z,2.17
2023-08-15T11:14:36.196Z,2.10
2023-08-15T11:17:08.102Z,1.75
2023-08-15T11:19:37.182Z,2.42
2023-08-15T11:22:08.002Z,2.30
2023-08-15T11:24:37.404Z,2.17
2023-08-15T11:27:07.104Z,2.28
2023-08-15T11:29:36.702Z,2.22
2023-08-15T11:32:07.259Z,2.42
2023-08-15T11:34:39.987Z,2.90
2023-08-15T11:37:12.433Z,2.13
2023-08-15T11:39:41.113Z,1.90
2023-08-15T11:42:13.322Z,2.38
2023-08-15T11:44:42.242Z,2.08
2023-08-15T11:47:15.756Z,2.55
2023-08-15T11:49:48.524Z,2.75
2023-08-15T11:52:20.622Z,3.17
2023-08-15T11:54:49.761Z,3.17
2023-08-15T11:57:36.548Z,2.90
2023-08-15T12:00:06.969Z,2.70
2023-08-15T12:02:43.098Z,2.78
2023-08-15T12:05:13.968Z,2.60
2023-08-15T12:07:43.789Z,2.30
2023-08-15T12:10:13.820Z,2.83
2023-08-15T12:12:44.179Z,3.08
2023-08-15T12:15:14.234Z,2.55
2023-08-15T12:17:44.515Z,2.90
2023-08-15T12:20:15.660Z,2.78
2023-08-15T12:22:46.005Z,2.55
2023-08-15T12:25:15.725Z,2.50
2023-08-15T12:27:51.071Z,2.60
2023-08-15T12:32:52.475Z,2.65
2023-08-15T12:35:21.185Z,2.60
2023-08-15T12:37:50.477Z,2.85
2023-08-15T12:40:30.677Z,2.58
2023-08-15T12:43:00.601Z,2.45
2023-08-15T12:45:29.647Z,3.13
2023-08-15T12:48:00.401Z,2.83
2023-08-15T12:50:28.939Z,2.60
2023-08-15T12:52:57.988Z,2.65
2023-08-15T12:55:26.759Z,2.25
2023-08-15T12:57:55.648Z,2.78
2023-08-15T13:00:23.962Z,2.42
2023-08-15T13:02:53.806Z,2.90
2023-08-15T13:05:23.701Z,3.22
2023-08-15T13:07:54.939Z,2.65
2023-08-15T13:10:23.889Z,2.33
2023-08-15T13:12:53.292Z,2.92
2023-08-15T13:15:22.023Z,3.20
2023-08-15T13:17:51.368Z,3.03
2023-08-15T13:20:19.687Z,2.97
2023-08-15T13:22:52.467Z,2.58
2023-08-15T13:25:21.028Z,3.00
2023-08-15T13:27:49.672Z,2.35
2023-08-15T13:30:18.519Z,2.42
2023-08-15T13:32:47.469Z,2.85
2023-08-15T13:35:16.504Z,2.78
2023-08-15T13:37:46.246Z,2.70
2023-08-15T13:40:15.961Z,2.80
2023-08-15T13:42:44.871Z,2.70
2023-08-15T13:45:13.510Z,2.58
2023-08-15T13:47:43.402Z,2.72
2023-08-15T13:50:12.162Z,2.70
2023-08-15T13:52:40.930Z,2.90
2023-08-15T13:55:11.041Z,2.65
2023-08-15T13:57:43.363Z,2.17
2023-08-15T14:00:13.615Z,2.58
2023-08-15T14:02:46.427Z,2.78
2023-08-15T14:05:15.046Z,2.88
2023-08-15T14:07:43.729Z,3.00
2023-08-15T14:10:13.153Z,2.85
2023-08-15T14:12:43.294Z,2.33
2023-08-15T14:15:13.522Z,2.70
2023-08-15T14:17:42.310Z,2.40
2023-08-15T14:20:12.704Z,2.63
2023-08-15T14:22:43.339Z,2.90
2023-08-15T14:25:13.527Z,2.33
2023-08-15T14:27:46.308Z,2.60
2023-08-15T14:30:15.385Z,2.50
2023-08-15T14:32:44.296Z,2.47
2023-08-15T14:35:13.002Z,2.58
2023-08-15T14:37:42.394Z,2.42
2023-08-15T14:40:11.031Z,2.78
2023-08-15T14:42:42.776Z,2.20
2023-08-15T14:45:12.807Z,2.42
2023-08-15T14:47:41.939Z,2.70
2023-08-15T14:50:13.742Z,2.63
2023-08-15T14:52:43.435Z,1.92
2023-08-15T14:55:13.184Z,2.20
2023-08-15T14:57:42.793Z,2.35
2023-08-15T15:00:14.506Z,2.72
2023-08-15T15:02:44.269Z,2.20
2023-08-15T15:05:12.934Z,2.60
2023-08-15T15:07:41.627Z,1.85
2023-08-15T15:10:11.783Z,2.85
2023-08-15T15:12:41.367Z,2.45
2023-08-15T15:15:12.178Z,2.13
2023-08-15T15:17:41.309Z,2.10
2023-08-15T15:20:10.680Z,2.55
2023-08-15T15:22:40.098Z,2.25
2023-08-15T15:25:10.781Z,2.00
2023-08-15T15:27:39.947Z,2.50
2023-08-15T15:30:10.301Z,2.35
2023-08-15T15:32:40.743Z,2.20
2023-08-15T15:35:09.661Z,2.10
2023-08-15T15:37:40.512Z,2.00
2023-08-15T15:40:10.135Z,2.05
2023-08-15T15:42:40.105Z,2.35
2023-08-15T15:45:10.358Z,1.73
2023-08-15T15:47:40.883Z,1.80
2023-08-15T15:50:09.944Z,1.55
2023-08-15T15:52:39.364Z,2.28
2023-08-15T15:55:10.380Z,2.08
2023-08-15T15:57:39.913Z,2.15
2023-08-15T16:00:13.886Z,1.50
2023-08-15T16:02:44.182Z,2.28
2023-08-15T16:05:13.033Z,1.90
2023-08-15T16:07:42.218Z,1.80
2023-08-15T16:10:12.693Z,2.28
2023-08-15T16:12:41.335Z,2.25
2023-08-15T16:15:10.701Z,2.33
2023-08-15T16:17:39.689Z,2.20
2023-08-15T16:20:10.834Z,2.33
2023-08-15T16:22:39.556Z,2.10
2023-08-15T16:25:08.655Z,1.90
2023-08-15T16:27:38.014Z,1.90
2023-08-15T16:30:17.263Z,2.00
2023-08-15T16:32:49.015Z,1.95
2023-08-15T16:35:19.205Z,1.92
2023-08-15T16:37:47.881Z,1.85
2023-08-15T16:40:16.293Z,1.73
2023-08-15T16:42:44.945Z,2.08
2023-08-15T16:45:13.241Z,2.30
2023-08-15T16:47:41.837Z,2.22
2023-08-15T16:50:10.566Z,2.22
2023-08-15T16:52:40.786Z,1.90
2023-08-15T16:55:09.609Z,1.98
2023-08-15T16:57:38.263Z,1.85
2023-08-15T17:00:08.307Z,1.58
2023-08-15T17:02:37.203Z,2.22
2023-08-15T17:05:06.281Z,2.10
2023-08-15T17:07:35.591Z,2.00
2023-08-15T17:10:06.431Z,1.98
2023-08-15T17:12:35.089Z,1.75
2023-08-15T17:15:03.996Z,2.10
2023-08-15T17:17:32.627Z,2.13
2023-08-15T17:20:01.287Z,1.95
2023-08-15T17:22:33.172Z,1.52
2023-08-15T17:25:02.024Z,2.10
2023-08-15T17:27:32.488Z,2.22
2023-08-15T17:30:01.034Z,2.58
2023-08-15T17:32:30.954Z,2.08
2023-08-15T17:34:59.418Z,1.80
2023-08-15T17:37:28.096Z,1.67
2023-08-15T17:39:56.468Z,2.45
2023-08-15T17:42:25.760Z,2.25
2023-08-15T17:44:55.519Z,2.17
2023-08-15T17:47:24.246Z,1.98
2023-08-15T17:49:52.867Z,2.47
2023-08-15T17:52:21.775Z,2.40
2023-08-15T17:54:50.420Z,2.35
2023-08-15T17:57:19.146Z,2.03
2023-08-15T17:59:47.655Z,2.00
2023-08-15T18:02:19.336Z,1.95
2023-08-15T18:04:47.908Z,2.10
2023-08-15T18:07:16.564Z,2.03
2023-08-15T18:09:45.149Z,2.28
2023-08-15T18:12:14.058Z,2.67
2023-08-15T18:14:44.053Z,2.42
2023-08-15T18:17:12.706Z,2.83
2023-08-15T18:19:43.970Z,2.15
2023-08-15T18:22:14.696Z,2.70
2023-08-15T18:24:43.310Z,2.30
2023-08-15T18:27:11.898Z,2.42
2023-08-15T18:29:40.150Z,2.65
2023-08-15T18:32:09.015Z,2.58
2023-08-15T18:34:37.841Z,2.65
2023-08-15T18:37:07.881Z,3.20
2023-08-15T18:39:36.647Z,2.78
2023-08-15T18:42:05.834Z,2.78
2023-08-15T18:44:34.127Z,2.70
2023-08-15T18:47:03.492Z,3.67
2023-08-15T18:49:32.176Z,2.47
2023-08-15T18:52:00.781Z,2.65
2023-08-15T18:54:30.618Z,3.13
2023-08-15T18:57:00.528Z,2.28
2023-08-15T18:59:29.138Z,2.92
2023-08-15T19:01:57.715Z,3.15
2023-08-15T19:04:28.190Z,3.33
2023-08-15T19:06:56.745Z,3.00
2023-08-15T19:09:25.388Z,2.90
2023-08-15T19:11:55.571Z,3.17
2023-08-15T19:14:23.910Z,3.17
2023-08-15T19:16:52.562Z,3.50
2023-08-15T19:19:20.917Z,3.20
2023-08-15T19:21:49.716Z,3.25
2023-08-15T19:24:18.962Z,3.58
2023-08-15T19:26:47.795Z,3.83
2023-08-15T19:29:17.429Z,3.17
2023-08-15T19:31:46.244Z,3.20
2023-08-15T19:34:17.401Z,3.20
2023-08-15T19:36:46.120Z,3.47
2023-08-15T19:39:14.950Z,3.42
2023-08-15T19:41:43.761Z,3.92
2023-08-15T19:44:12.079Z,3.22
2023-08-15T19:46:42.158Z,3.42
2023-08-15T19:49:10.582Z,4.07
2023-08-15T19:51:39.364Z,3.88
2023-08-15T19:54:07.976Z,3.60
2023-08-15T19:56:36.982Z,4.25
2023-08-15T19:59:05.741Z,3.78
2023-08-15T20:01:34.390Z,3.50
2023-08-15T20:04:04.213Z,4.72
2023-08-15T20:06:32.948Z,3.60
2023-08-15T20:09:01.256Z,3.95
2023-08-15T20:11:31.132Z,4.05
2023-08-15T20:14:00.113Z,3.67
2023-08-15T20:16:30.171Z,4.63
2023-08-15T20:18:58.488Z,3.78
2023-08-15T20:21:31.308Z,4.47
2023-08-15T20:24:00.339Z,4.07
2023-08-15T20:26:29.075Z,4.15
2023-08-15T20:28:57.963Z,4.82
2023-08-15T20:31:30.011Z,4.70
2023-08-15T20:34:00.928Z,4.47
2023-08-15T20:36:35.373Z,3.53
2023-08-15T20:39:04.959Z,4.80
2023-08-15T20:41:34.485Z,4.70
2023-08-15T20:44:03.498Z,4.80
2023-08-15T20:46:38.362Z,4.80
2023-08-15T20:49:08.087Z,4.93
2023-08-15T20:51:38.538Z,4.80
2023-08-15T20:54:07.347Z,4.90
2023-08-15T20:56:36.214Z,4.55
2023-08-15T20:59:05.119Z,4.43
2023-08-15T21:01:34.058Z,3.92
2023-08-15T21:04:02.536Z,4.47
2023-08-15T21:06:33.251Z,4.80
2023-08-15T21:09:02.967Z,4.20
2023-08-15T21:11:33.024Z,4.15
2023-08-15T21:14:01.745Z,5.00
2023-08-15T21:16:30.437Z,4.88
2023-08-15T21:18:59.152Z,4.63
2023-08-15T21:21:28.440Z,4.55
2023-08-15T21:24:02.885Z,4.38
2023-08-15T21:26:32.952Z,4.88
2023-08-15T21:29:01.365Z,4.20
2023-08-15T21:31:30.905Z,4.63
2023-08-15T21:33:59.439Z,4.75
2023-08-15T21:36:29.177Z,5.32
2023-08-15T21:39:02.095Z,4.28
2023-08-15T21:41:31.506Z,5.40
2023-08-15T21:44:01.926Z,4.60
2023-08-15T21:46:33.482Z,5.38
2023-08-15T21:49:03.541Z,5.38
2023-08-15T21:51:38.464Z,4.43
2023-08-15T21:54:08.848Z,4.97
2023-08-15T21:56:37.567Z,5.05
2023-08-15T21:59:07.541Z,4.90
2023-08-15T22:01:37.338Z,5.43
2023-08-15T22:04:08.580Z,4.85
2023-08-15T22:06:37.158Z,5.05
2023-08-15T22:09:07.690Z,4.70
2023-08-15T22:11:36.437Z,4.85
2023-08-15T22:14:05.033Z,4.63
2023-08-15T22:16:33.836Z,4.85
2023-08-15T22:19:02.345Z,4.55
2023-08-15T22:21:30.993Z,5.57
2023-08-15T22:24:03.113Z,5.25
2023-08-15T22:26:33.015Z,4.95
2023-08-15T22:29:01.329Z,5.07
2023-08-15T22:31:30.483Z,4.88
2023-08-15T22:33:58.820Z,4.85
2023-08-15T22:36:27.414Z,4.90
2023-08-15T22:38:55.635Z,5.45
2023-08-15T22:41:24.100Z,5.53
2023-08-15T22:43:53.698Z,5.25
2023-08-15T22:46:22.250Z,4.75
2023-08-15T22:48:50.488Z,4.95
2023-08-15T22:51:19.033Z,5.05
2023-08-15T22:53:47.358Z,5.03
2023-08-15T22:56:15.985Z,5.13
2023-08-15T22:58:44.332Z,5.05
2023-08-15T23:01:14.310Z,4.97
2023-08-15T23:03:42.551Z,4.50
2023-08-15T23:06:11.622Z,4.82
2023-08-15T23:08:39.977Z,4.70
2023-08-15T23:11:08.694Z,4.57
2023-08-15T23:13:36.998Z,5.25
2023-08-15T23:16:06.122Z,4.30
2023-08-15T23:18:35.755Z,4.75
2023-08-15T23:21:04.659Z,5.30
2023-08-15T23:23:33.090Z,4.85
2023-08-15T23:26:01.540Z,4.90
2023-08-15T23:28:29.856Z,5.25
2023-08-15T23:30:58.574Z,5.13
2023-08-15T23:33:27.025Z,5.43
2023-08-15T23:35:56.896Z,4.70
2023-08-15T23:38:25.176Z,4.93
2023-08-15T23:40:54.058Z,4.75
2023-08-15T23:43:22.265Z,5.55
2023-08-15T23:45:51.215Z,4.90
2023-08-15T23:48:19.456Z,5.07
2023-08-15T23:50:47.968Z,5.72
2023-08-15T23:53:17.595Z,5.47
2023-08-15T23:55:46.507Z,5.63
2023-08-15T23:58:14.836Z,5.47
